createdAt,value
2018-06-29T00:00:47.244Z,10.87
2018-06-29T00:03:16.571Z,10.97
2018-06-29T00:05:45.839Z,11.03
2018-06-29T00:08:15.119Z,11.30
2018-06-29T00:10:44.352Z,11.27
2018-06-29T00:13:13.634Z,10.83
2018-06-29T00:15:42.882Z,11.47
2018-06-29T00:18:12.164Z,11.17
2018-06-29T00:20:41.329Z,11.07
2018-06-29T00:23:10.656Z,11.27
2018-06-29T00:25:39.855Z,11.37
2018-06-29T00:28:09.943Z,11.97
2018-06-29T00:30:39.170Z,11.20
2018-06-29T00:33:08.741Z,11.90
2018-06-29T00:35:37.987Z,11.73
2018-06-29T00:38:07.190Z,11.90
2018-06-29T00:40:36.514Z,12.10
2018-06-29T00:43:05.781Z,13.13
2018-06-29T00:45:35.068Z,12.77
2018-06-29T00:48:04.392Z,12.73
2018-06-29T00:50:33.647Z,11.73
2018-06-29T00:53:02.871Z,12.43
2018-06-29T00:55:32.302Z,11.97
2018-06-29T00:58:01.494Z,11.90
2018-06-29T01:00:30.708Z,12.10
2018-06-29T01:02:59.956Z,11.87
2018-06-29T01:05:29.499Z,12.30
2018-06-29T01:07:58.738Z,11.97
2018-06-29T01:10:28.027Z,12.33
2018-06-29T01:12:57.288Z,11.53
2018-06-29T01:15:49.487Z,12.30
2018-06-29T01:18:18.514Z,11.83
2018-06-29T01:20:47.532Z,12.60
2018-06-29T01:23:16.588Z,12.03
2018-06-29T01:25:45.573Z,12.80
2018-06-29T01:28:15.079Z,12.10
2018-06-29T01:30:44.302Z,11.67
2018-06-29T01:33:13.587Z,11.60
2018-06-29T01:35:42.270Z,11.73
2018-06-29T01:38:11.523Z,11.33
2018-06-29T01:40:40.747Z,11.40
2018-06-29T01:43:10.051Z,11.70
2018-06-29T01:45:39.387Z,10.93
2018-06-29T01:48:09.103Z,12.07
2018-06-29T01:50:38.615Z,10.93
2018-06-29T01:53:07.897Z,10.67
2018-06-29T01:55:37.117Z,11.10
2018-06-29T01:58:06.583Z,10.97
2018-06-29T02:00:35.779Z,11.23
2018-06-29T02:03:05.003Z,11.63
2018-06-29T02:05:34.224Z,11.27
2018-06-29T02:08:03.486Z,11.13
2018-06-29T02:10:32.828Z,10.67
2018-06-29T02:13:02.135Z,11.23
2018-06-29T02:15:31.371Z,11.27
2018-06-29T02:18:00.580Z,11.83
2018-06-29T02:20:29.808Z,12.13
2018-06-29T02:22:59.004Z,11.47
2018-06-29T02:25:28.221Z,11.83
2018-06-29T02:27:57.428Z,11.80
2018-06-29T02:30:26.727Z,11.30
2018-06-29T02:32:56.315Z,11.23
2018-06-29T02:35:25.567Z,11.77
2018-06-29T02:37:54.752Z,11.43
2018-06-29T02:40:23.991Z,10.70
2018-06-29T02:42:53.179Z,11.63
2018-06-29T02:45:22.363Z,11.77
2018-06-29T02:47:51.523Z,11.77
2018-06-29T02:50:20.962Z,11.47
2018-06-29T02:52:50.143Z,12.17
2018-06-29T02:55:19.483Z,11.20
2018-06-29T02:57:48.719Z,11.40
2018-06-29T03:00:18.274Z,11.60
2018-06-29T03:02:47.604Z,11.20
2018-06-29T03:05:17.984Z,11.20
2018-06-29T03:07:47.215Z,11.70
2018-06-29T03:10:21.320Z,12.47
2018-06-29T03:12:50.554Z,12.43
2018-06-29T03:15:19.869Z,11.60
2018-06-29T03:17:49.063Z,12.13
2018-06-29T03:20:18.287Z,11.63
2018-06-29T03:22:47.755Z,12.67
2018-06-29T03:25:17.034Z,11.70
2018-06-29T03:27:46.276Z,13.37
2018-06-29T03:30:15.495Z,12.77
2018-06-29T03:32:44.756Z,12.60
2018-06-29T03:35:14.044Z,12.93
2018-06-29T03:37:43.247Z,12.63
2018-06-29T03:40:12.478Z,12.93
2018-06-29T03:42:41.724Z,12.73
2018-06-29T03:45:10.987Z,12.93
2018-06-29T03:47:40.190Z,12.97
2018-06-29T03:50:09.378Z,13.30
2018-06-29T03:52:38.612Z,13.17
2018-06-29T03:55:07.807Z,13.97
2018-06-29T03:57:37.024Z,13.97
2018-06-29T04:00:06.447Z,12.90
2018-06-29T04:02:35.674Z,13.10
2018-06-29T04:05:05.416Z,13.90
2018-06-29T04:07:34.711Z,13.50
2018-06-29T04:10:03.439Z,13.70
2018-06-29T04:12:32.668Z,14.53
2018-06-29T04:15:01.949Z,13.93
2018-06-29T04:17:31.943Z,14.70
2018-06-29T04:20:01.315Z,15.67
2018-06-29T04:22:30.580Z,15.50
2018-06-29T04:25:06.122Z,15.93
2018-06-29T04:27:35.387Z,15.63
2018-06-29T04:30:04.764Z,15.80
2018-06-29T04:32:34.062Z,16.63
2018-06-29T04:35:03.315Z,15.43
2018-06-29T04:37:32.512Z,16.20
2018-06-29T04:40:01.271Z,15.90
2018-06-29T04:42:30.499Z,16.43
2018-06-29T04:44:59.721Z,15.87
2018-06-29T04:47:29.056Z,16.00
2018-06-29T04:49:58.268Z,16.17
2018-06-29T04:52:26.882Z,15.53
2018-06-29T04:54:56.165Z,16.37
2018-06-29T04:57:25.339Z,16.87
2018-06-29T04:59:54.467Z,16.93
2018-06-29T05:02:23.761Z,16.20
2018-06-29T05:04:52.938Z,17.13
2018-06-29T05:07:22.167Z,16.77
2018-06-29T05:09:51.393Z,17.10
2018-06-29T05:12:20.667Z,16.47
2018-06-29T05:14:49.858Z,16.17
2018-06-29T05:17:19.056Z,17.20
2018-06-29T05:19:48.299Z,17.67
2018-06-29T05:22:17.547Z,16.40
2018-06-29T05:24:47.093Z,17.07
2018-06-29T05:27:16.368Z,16.37
2018-06-29T05:29:45.591Z,16.67
2018-06-29T05:32:14.787Z,16.33
2018-06-29T05:34:44.045Z,16.80
2018-06-29T05:37:13.322Z,16.70
2018-06-29T05:39:42.836Z,15.93
2018-06-29T05:42:11.988Z,17.20
2018-06-29T05:44:41.223Z,17.20
2018-06-29T05:47:10.618Z,16.03
2018-06-29T05:49:39.326Z,15.63
2018-06-29T05:52:20.488Z,15.67
2018-06-29T05:54:49.751Z,15.67
2018-06-29T05:57:19.548Z,15.63
2018-06-29T05:59:48.982Z,15.60
2018-06-29T06:02:19.806Z,14.80
2018-06-29T06:04:49.524Z,15.67
2018-06-29T06:07:19.558Z,14.83
2018-06-29T06:09:49.243Z,15.27
2018-06-29T06:12:18.984Z,15.00
2018-06-29T06:14:48.418Z,15.63
2018-06-29T06:17:17.734Z,13.83
2018-06-29T06:19:57.825Z,14.60
2018-06-29T06:22:27.073Z,14.87
2018-06-29T06:24:56.335Z,14.27
2018-06-29T06:30:19.889Z,14.43
2018-06-29T06:32:49.479Z,15.00
2018-06-29T06:35:18.775Z,14.67
2018-06-29T06:37:48.000Z,14.60
2018-06-29T06:40:16.950Z,13.87
2018-06-29T06:42:46.718Z,13.73
2018-06-29T06:45:16.349Z,13.43
2018-06-29T06:47:46.031Z,13.33
2018-06-29T06:50:16.832Z,13.33
2018-06-29T06:52:46.331Z,13.50
2018-06-29T06:55:15.964Z,13.20
2018-06-29T06:57:45.258Z,12.90
2018-06-29T07:00:31.836Z,12.50
2018-06-29T07:03:01.576Z,12.47
2018-06-29T07:05:31.357Z,11.83
2018-06-29T07:08:00.837Z,12.07
2018-06-29T07:10:30.124Z,12.40
2018-06-29T07:12:59.584Z,12.13
2018-06-29T07:15:28.980Z,12.27
2018-06-29T07:17:58.250Z,13.03
2018-06-29T07:20:27.634Z,11.93
2018-06-29T07:22:56.942Z,11.93
2018-06-29T07:25:26.284Z,11.47
2018-06-29T07:28:15.712Z,11.37
2018-06-29T07:30:44.952Z,10.50
2018-06-29T07:33:14.224Z,10.23
2018-06-29T07:35:43.507Z,9.70
2018-06-29T07:38:12.711Z,10.17
2018-06-29T07:40:41.991Z,10.20
2018-06-29T07:43:11.207Z,10.47
2018-06-29T07:45:40.455Z,9.63
2018-06-29T07:48:09.729Z,9.80
2018-06-29T07:50:39.392Z,9.53
2018-06-29T07:53:08.949Z,9.80
2018-06-29T07:55:38.499Z,10.13
2018-06-29T07:58:07.800Z,9.37
2018-06-29T08:00:37.023Z,9.17
2018-06-29T08:03:06.260Z,8.90
2018-06-29T08:05:35.488Z,8.20
2018-06-29T08:08:04.960Z,7.67
2018-06-29T08:10:34.414Z,6.47
2018-06-29T08:13:03.640Z,6.10
2018-06-29T08:15:32.899Z,6.17
2018-06-29T08:18:02.140Z,6.40
2018-06-29T08:20:31.400Z,6.50
2018-06-29T08:23:00.663Z,6.83
2018-06-29T08:25:29.864Z,6.83
2018-06-29T08:27:59.080Z,6.30
2018-06-29T08:30:28.323Z,6.20
2018-06-29T08:32:57.576Z,6.27
2018-06-29T08:35:26.735Z,6.43
2018-06-29T08:37:55.983Z,6.50
2018-06-29T08:40:25.254Z,6.30
2018-06-29T08:42:54.529Z,5.50
2018-06-29T08:45:23.820Z,5.03
2018-06-29T08:47:53.116Z,5.50
2018-06-29T08:50:22.633Z,5.40
2018-06-29T08:52:51.903Z,5.37
2018-06-29T08:55:26.880Z,5.57
2018-06-29T08:57:56.735Z,6.03
2018-06-29T09:00:26.008Z,5.47
2018-06-29T09:02:55.899Z,5.27
2018-06-29T09:05:25.049Z,5.67
2018-06-29T09:07:54.272Z,5.30
2018-06-29T09:10:31.988Z,5.43
2018-06-29T09:13:01.228Z,5.03
2018-06-29T09:15:30.505Z,5.80
2018-06-29T09:17:59.730Z,5.00
2018-06-29T09:20:28.960Z,5.27
2018-06-29T09:22:58.208Z,5.03
2018-06-29T09:25:27.535Z,5.47
2018-06-29T09:27:56.799Z,5.00
2018-06-29T09:30:26.336Z,5.10
2018-06-29T09:32:56.118Z,5.13
2018-06-29T09:35:25.349Z,4.63
2018-06-29T09:37:54.628Z,5.10
2018-06-29T09:40:23.844Z,4.87
2018-06-29T09:42:53.083Z,4.63
2018-06-29T09:45:22.437Z,4.73
2018-06-29T09:47:51.775Z,4.47
2018-06-29T09:50:20.972Z,4.63
2018-06-29T09:52:50.603Z,4.67
2018-06-29T09:55:19.853Z,4.27
2018-06-29T09:57:49.020Z,4.93
2018-06-29T10:00:22.397Z,4.30
2018-06-29T10:02:51.719Z,4.33
2018-06-29T10:05:21.007Z,4.23
2018-06-29T10:07:50.687Z,4.60
2018-06-29T10:10:19.980Z,4.77
2018-06-29T10:12:49.443Z,4.30
2018-06-29T10:15:19.492Z,4.13
2018-06-29T10:17:48.963Z,4.37
2018-06-29T10:20:18.735Z,4.10
2018-06-29T10:22:47.919Z,4.10
2018-06-29T10:25:17.249Z,4.30
2018-06-29T10:27:46.446Z,4.43
2018-06-29T10:30:15.692Z,4.40
2018-06-29T10:32:44.907Z,4.10
2018-06-29T10:35:14.130Z,4.23
2018-06-29T10:37:43.410Z,3.93
2018-06-29T10:40:12.637Z,3.90
2018-06-29T10:42:41.886Z,3.73
2018-06-29T10:45:11.128Z,3.80
2018-06-29T10:47:40.439Z,3.97
2018-06-29T10:50:09.757Z,3.63
2018-06-29T10:52:39.090Z,3.90
2018-06-29T10:55:08.535Z,4.00
2018-06-29T10:57:37.238Z,4.50
2018-06-29T11:00:07.230Z,3.83
2018-06-29T11:02:36.491Z,4.20
2018-06-29T11:05:05.768Z,3.63
2018-06-29T11:07:35.054Z,3.83
2018-06-29T11:10:04.519Z,4.20
2018-06-29T11:12:33.837Z,3.80
2018-06-29T11:15:03.086Z,3.93
2018-06-29T11:17:32.377Z,3.90
2018-06-29T11:20:01.593Z,3.90
2018-06-29T11:22:30.917Z,3.93
2018-06-29T11:25:00.284Z,3.57
2018-06-29T11:27:41.262Z,3.70
2018-06-29T11:30:10.967Z,3.70
2018-06-29T11:32:40.391Z,3.87
2018-06-29T11:35:09.856Z,4.10
2018-06-29T11:37:39.571Z,4.20
2018-06-29T11:40:08.848Z,3.97
2018-06-29T11:42:38.305Z,3.80
2018-06-29T11:45:07.740Z,3.70
2018-06-29T11:47:39.115Z,3.27
2018-06-29T11:50:08.703Z,3.50
2018-06-29T11:52:38.067Z,4.07
2018-06-29T11:55:07.383Z,4.13
2018-06-29T11:57:36.617Z,3.57
2018-06-29T12:00:06.552Z,4.00
2018-06-29T12:02:35.762Z,3.47
2018-06-29T12:05:05.196Z,3.73
2018-06-29T12:07:34.463Z,3.80
2018-06-29T12:10:03.723Z,4.00
2018-06-29T12:12:32.920Z,3.40
2018-06-29T12:18:00.112Z,3.80
2018-06-29T12:20:29.532Z,3.77
2018-06-29T12:23:04.530Z,3.73
2018-06-29T12:25:33.852Z,3.80
2018-06-29T12:28:03.188Z,3.93
2018-06-29T12:30:32.507Z,3.70
2018-06-29T12:33:01.800Z,3.80
2018-06-29T12:38:24.325Z,3.73
2018-06-29T12:40:53.658Z,3.97
2018-06-29T12:43:23.039Z,3.30
2018-06-29T12:45:52.261Z,3.77
2018-06-29T12:48:21.486Z,3.70
2018-06-29T12:50:50.754Z,3.40
2018-06-29T12:53:20.081Z,3.40
2018-06-29T12:55:49.421Z,3.50
2018-06-29T12:58:18.615Z,4.10
2018-06-29T13:00:47.884Z,3.70
2018-06-29T13:03:17.162Z,3.53
2018-06-29T13:05:46.337Z,4.00
2018-06-29T13:08:15.470Z,3.80
2018-06-29T13:10:44.100Z,4.00
2018-06-29T13:13:13.323Z,3.63
2018-06-29T13:15:42.572Z,3.87
2018-06-29T13:18:11.742Z,3.40
2018-06-29T13:20:42.195Z,3.73
2018-06-29T13:23:11.484Z,3.30
2018-06-29T13:25:40.772Z,3.97
2018-06-29T13:28:10.056Z,3.73
2018-06-29T13:30:39.904Z,4.20
2018-06-29T13:33:09.684Z,4.30
2018-06-29T13:35:38.951Z,4.90
2018-06-29T13:38:08.382Z,5.20
2018-06-29T13:40:37.668Z,5.97
2018-06-29T13:43:06.526Z,3.73
2018-06-29T13:45:35.766Z,3.50
2018-06-29T13:48:05.064Z,4.13
2018-06-29T13:50:34.375Z,3.53
2018-06-29T13:53:04.343Z,3.70
2018-06-29T13:55:34.115Z,3.83
2018-06-29T13:58:03.847Z,3.67
2018-06-29T14:00:33.109Z,3.70
2018-06-29T14:03:02.403Z,3.53
2018-06-29T14:05:31.599Z,3.57
2018-06-29T14:08:00.830Z,3.07
2018-06-29T14:10:30.191Z,3.90
2018-06-29T14:13:05.883Z,3.40
2018-06-29T14:15:35.134Z,3.40
2018-06-29T14:18:04.366Z,3.30
2018-06-29T14:20:33.577Z,3.53
2018-06-29T14:23:02.873Z,3.40
2018-06-29T14:28:29.544Z,3.80
2018-06-29T14:30:58.739Z,3.97
2018-06-29T14:33:28.032Z,3.40
2018-06-29T14:35:59.279Z,3.23
2018-06-29T14:38:28.631Z,3.13
2018-06-29T14:40:58.105Z,3.60
2018-06-29T14:43:27.275Z,3.30
2018-06-29T14:45:56.480Z,5.93
2018-06-29T14:48:25.606Z,3.23
2018-06-29T14:50:55.248Z,3.40
2018-06-29T14:53:26.069Z,3.30
2018-06-29T14:55:55.511Z,3.40
2018-06-29T14:58:24.899Z,3.50
2018-06-29T15:00:54.172Z,3.60
2018-06-29T15:03:23.515Z,3.57
2018-06-29T15:05:52.237Z,3.43
2018-06-29T15:08:21.484Z,3.47
2018-06-29T15:10:50.687Z,3.20
2018-06-29T15:13:19.931Z,3.63
2018-06-29T15:15:49.204Z,11.97
2018-06-29T15:18:18.386Z,4.80
2018-06-29T15:20:47.678Z,4.43
2018-06-29T15:23:17.915Z,5.10
2018-06-29T15:25:47.438Z,3.30
2018-06-29T15:28:17.151Z,3.30
2018-06-29T15:30:46.435Z,3.53
2018-06-29T15:33:15.699Z,3.20
2018-06-29T15:35:44.964Z,3.50
2018-06-29T15:38:14.228Z,3.30
2018-06-29T15:40:43.596Z,2.93
2018-06-29T15:43:13.785Z,3.70
2018-06-29T15:45:43.134Z,3.30
2018-06-29T15:48:13.645Z,3.37
2018-06-29T15:50:42.984Z,3.20
2018-06-29T15:53:12.267Z,6.17
2018-06-29T15:55:41.776Z,4.07
2018-06-29T15:58:11.132Z,4.50
2018-06-29T16:00:40.835Z,3.80
2018-06-29T16:03:10.056Z,3.20
2018-06-29T16:05:39.339Z,3.27
2018-06-29T16:08:08.683Z,3.20
2018-06-29T16:10:37.856Z,2.97
2018-06-29T16:13:10.012Z,2.87
2018-06-29T16:15:39.286Z,2.90
2018-06-29T16:18:08.571Z,3.13
2018-06-29T16:20:37.803Z,3.27
2018-06-29T16:23:07.263Z,3.00
2018-06-29T16:25:36.507Z,3.20
2018-06-29T16:28:05.305Z,3.10
2018-06-29T16:30:34.509Z,3.00
2018-06-29T16:33:03.790Z,2.97
2018-06-29T16:35:33.011Z,3.23
2018-06-29T16:38:02.352Z,3.33
2018-06-29T16:40:31.427Z,3.13
2018-06-29T16:43:00.664Z,3.20
2018-06-29T16:45:29.847Z,3.17
2018-06-29T16:47:59.052Z,2.93
2018-06-29T16:50:28.326Z,2.83
2018-06-29T16:52:57.483Z,3.10
2018-06-29T16:55:26.747Z,3.30
2018-06-29T16:57:56.031Z,3.07
2018-06-29T17:00:25.563Z,2.93
2018-06-29T17:02:54.801Z,3.30
2018-06-29T17:05:24.514Z,3.17
2018-06-29T17:07:53.763Z,3.00
2018-06-29T17:10:23.037Z,3.27
2018-06-29T17:12:52.271Z,3.00
2018-06-29T17:15:21.554Z,3.10
2018-06-29T17:17:50.782Z,2.97
2018-06-29T17:20:20.032Z,2.90
2018-06-29T17:22:49.371Z,2.80
2018-06-29T17:25:18.588Z,2.83
2018-06-29T17:27:47.800Z,3.00
2018-06-29T17:30:16.496Z,3.23
2018-06-29T17:32:45.707Z,3.33
2018-06-29T17:35:14.876Z,2.83
2018-06-29T17:37:44.140Z,2.90
2018-06-29T17:40:13.335Z,2.70
2018-06-29T17:42:42.705Z,2.90
2018-06-29T17:45:11.945Z,2.90
2018-06-29T17:47:41.647Z,3.50
2018-06-29T17:50:10.903Z,3.07
2018-06-29T17:52:40.114Z,5.43
2018-06-29T17:55:09.494Z,3.37
2018-06-29T17:57:38.613Z,2.90
2018-06-29T18:00:07.979Z,3.37
2018-06-29T18:02:37.324Z,2.80
2018-06-29T18:05:06.844Z,3.20
2018-06-29T18:07:36.110Z,3.00
2018-06-29T18:10:05.523Z,2.90
2018-06-29T18:12:34.867Z,2.80
2018-06-29T18:15:04.192Z,3.40
2018-06-29T18:17:33.591Z,2.77
2018-06-29T18:20:02.832Z,3.20
2018-06-29T18:22:32.119Z,3.10
2018-06-29T18:25:01.374Z,2.93
2018-06-29T18:27:30.651Z,3.30
2018-06-29T18:30:00.903Z,3.30
2018-06-29T18:32:30.135Z,3.03
2018-06-29T18:34:59.372Z,3.30
2018-06-29T18:37:28.603Z,3.30
2018-06-29T18:39:57.882Z,3.30
2018-06-29T18:42:27.108Z,3.23
2018-06-29T18:44:57.150Z,3.17
2018-06-29T18:47:26.414Z,3.13
2018-06-29T18:49:55.644Z,3.57
2018-06-29T18:52:26.781Z,3.73
2018-06-29T18:54:56.040Z,3.23
2018-06-29T18:57:25.383Z,3.57
2018-06-29T18:59:59.391Z,3.60
2018-06-29T19:02:28.908Z,3.70
2018-06-29T19:05:05.226Z,3.87
2018-06-29T19:07:36.467Z,4.57
2018-06-29T19:10:06.435Z,5.13
2018-06-29T19:12:36.049Z,4.80
2018-06-29T19:15:05.639Z,4.87
2018-06-29T19:17:34.969Z,4.50
2018-06-29T19:20:04.376Z,4.57
2018-06-29T19:22:43.875Z,4.53
2018-06-29T19:25:13.787Z,4.00
2018-06-29T19:27:43.287Z,4.00
2018-06-29T19:30:12.764Z,3.73
2018-06-29T19:32:43.387Z,4.60
2018-06-29T19:35:12.755Z,4.30
2018-06-29T19:37:42.072Z,4.60
2018-06-29T19:40:11.578Z,4.37
2018-06-29T19:42:40.872Z,4.40
2018-06-29T19:45:14.948Z,3.97
2018-06-29T19:47:45.690Z,4.43
2018-06-29T19:50:14.983Z,3.83
2018-06-29T19:52:44.408Z,4.50
2018-06-29T19:55:13.796Z,4.10
2018-06-29T19:57:43.202Z,4.20
2018-06-29T20:00:12.540Z,4.47
2018-06-29T20:02:42.192Z,4.40
2018-06-29T20:05:16.798Z,4.40
2018-06-29T20:07:46.091Z,4.70
2018-06-29T20:10:15.345Z,4.73
2018-06-29T20:12:46.166Z,5.10
2018-06-29T20:15:16.780Z,4.97
2018-06-29T20:17:46.022Z,5.40
2018-06-29T20:20:16.701Z,5.20
2018-06-29T20:22:47.199Z,5.30
2018-06-29T20:25:16.426Z,5.17
2018-06-29T20:27:45.600Z,5.10
2018-06-29T20:30:14.827Z,5.20
2018-06-29T20:32:44.078Z,5.10
2018-06-29T20:35:13.347Z,5.27
2018-06-29T20:37:42.564Z,5.10
2018-06-29T20:40:11.841Z,5.10
2018-06-29T20:42:41.220Z,5.10
2018-06-29T20:45:10.752Z,4.93
2018-06-29T20:47:40.921Z,4.93
2018-06-29T20:50:12.635Z,4.70
2018-06-29T20:52:42.527Z,4.80
2018-06-29T20:55:12.672Z,5.00
2018-06-29T20:57:41.962Z,4.97
2018-06-29T21:00:11.551Z,5.20
2018-06-29T21:02:40.953Z,5.27
2018-06-29T21:08:12.431Z,4.50
2018-06-29T21:10:41.971Z,5.23
2018-06-29T21:13:11.757Z,5.53
2018-06-29T21:15:41.248Z,5.40
2018-06-29T21:18:10.640Z,5.37
2018-06-29T21:20:40.282Z,4.43
2018-06-29T21:23:10.007Z,4.60
2018-06-29T21:25:39.312Z,5.17
2018-06-29T21:28:08.566Z,4.77
2018-06-29T21:30:37.844Z,4.83
2018-06-29T21:33:07.144Z,5.00
2018-06-29T21:35:36.407Z,4.60
2018-06-29T21:38:05.695Z,5.00
2018-06-29T21:40:34.952Z,5.00
2018-06-29T21:43:04.143Z,5.37
2018-06-29T21:45:33.379Z,5.37
2018-06-29T21:48:02.996Z,4.93
2018-06-29T21:50:32.207Z,5.40
2018-06-29T21:53:01.406Z,5.63
2018-06-29T21:55:30.478Z,5.83
2018-06-29T21:57:59.623Z,5.73
2018-06-29T22:00:34.192Z,5.93
2018-06-29T22:03:08.730Z,5.37
2018-06-29T22:05:40.496Z,5.57
2018-06-29T22:08:10.464Z,5.60
2018-06-29T22:10:41.223Z,5.90
2018-06-29T22:13:10.839Z,5.70
2018-06-29T22:15:40.049Z,5.37
2018-06-29T22:18:09.244Z,5.87
2018-06-29T22:20:38.931Z,5.70
2018-06-29T22:23:08.241Z,6.23
2018-06-29T22:25:37.540Z,5.63
2018-06-29T22:28:06.832Z,5.97
2018-06-29T22:30:36.089Z,5.97
2018-06-29T22:33:05.424Z,5.77
2018-06-29T22:35:34.663Z,5.83
2018-06-29T22:38:03.915Z,6.00
2018-06-29T22:40:33.183Z,5.90
2018-06-29T22:43:02.389Z,6.33
2018-06-29T22:45:31.636Z,6.17
2018-06-29T22:48:00.872Z,6.17
2018-06-29T22:50:30.097Z,6.17
2018-06-29T22:52:59.376Z,6.77
2018-06-29T22:55:28.631Z,6.50
2018-06-29T22:57:57.855Z,6.80
2018-06-29T23:00:27.112Z,7.73
2018-06-29T23:03:04.507Z,7.33
2018-06-29T23:11:21.499Z,6.90
2018-06-29T23:13:50.931Z,7.00
2018-06-29T23:16:20.202Z,6.83
2018-06-29T23:18:49.407Z,6.77
2018-06-29T23:21:18.098Z,6.90
2018-06-29T23:23:47.244Z,7.10
2018-06-29T23:26:16.515Z,7.57
2018-06-29T23:28:45.680Z,6.83
2018-06-29T23:31:14.977Z,7.47
2018-06-29T23:33:44.279Z,7.40
2018-06-29T23:36:13.703Z,7.50
2018-06-29T23:38:42.895Z,8.13
2018-06-29T23:41:13.918Z,7.20
2018-06-29T23:43:43.160Z,7.53
2018-06-29T23:46:12.400Z,7.07
2018-06-29T23:48:41.647Z,7.10
2018-06-29T23:51:10.908Z,7.30
2018-06-29T23:53:40.198Z,8.03
2018-06-29T23:56:09.476Z,7.23
2018-06-29T23:58:39.148Z,7.60
